createdAt,value
2023-05-21T00:00:39.324Z,24.32
2023-05-21T00:02:44.874Z,24.32
2023-05-21T00:04:51.134Z,24.3
2023-05-21T00:06:56.611Z,24.32
2023-05-21T00:09:02.013Z,24.31
2023-05-21T00:11:08.884Z,24.31
2023-05-21T00:13:14.538Z,24.33
2023-05-21T00:15:20.069Z,24.31
2023-05-21T00:17:25.828Z,24.32
2023-05-21T00:19:31.799Z,24.32
2023-05-21T00:21:37.424Z,24.33
2023-05-21T00:23:43.890Z,24.31
2023-05-21T00:25:49.429Z,24.3
2023-05-21T00:27:55.169Z,24.32
2023-05-21T00:30:00.719Z,24.33
2023-05-21T00:32:06.451Z,24.35
2023-05-21T00:34:12.407Z,24.35
2023-05-21T00:36:18.771Z,24.36
2023-05-21T00:38:25.441Z,24.35
2023-05-21T00:40:32.109Z,24.36
2023-05-21T00:42:37.672Z,24.34
2023-05-21T00:44:43.647Z,24.33
2023-05-21T00:46:50.024Z,24.32
2023-05-21T00:48:55.713Z,24.32
2023-05-21T00:51:04.337Z,24.32
2023-05-21T00:53:10.563Z,24.34
2023-05-21T00:55:16.449Z,24.34
2023-05-21T00:57:22.452Z,24.34
2023-05-21T00:59:27.933Z,24.35
2023-05-21T01:01:34.612Z,24.34
2023-05-21T01:03:40.804Z,24.33
2023-05-21T01:05:47.496Z,24.35
2023-05-21T01:07:53.276Z,24.36
2023-05-21T01:09:58.819Z,24.37
2023-05-21T01:12:04.875Z,24.36
2023-05-21T01:14:10.523Z,24.34
2023-05-21T01:16:16.477Z,24.35
2023-05-21T01:18:24.108Z,24.35
2023-05-21T01:20:29.838Z,24.33
2023-05-21T01:22:36.170Z,24.32
2023-05-21T01:24:42.026Z,24.34
2023-05-21T01:26:47.769Z,24.37
2023-05-21T01:28:55.019Z,24.37
2023-05-21T01:31:00.597Z,24.36
2023-05-21T01:33:07.137Z,24.36
2023-05-21T01:35:13.984Z,24.36
2023-05-21T01:37:19.373Z,24.36
2023-05-21T01:39:25.221Z,24.35
2023-05-21T01:41:30.868Z,24.33
2023-05-21T01:43:42.047Z,24.34
2023-05-21T01:45:48.207Z,24.33
2023-05-21T01:47:53.653Z,24.34
2023-05-21T01:50:00.244Z,24.34
2023-05-21T01:52:05.861Z,24.35
2023-05-21T01:54:11.815Z,24.33
2023-05-21T01:56:19.493Z,24.32
2023-05-21T01:58:25.453Z,24.33
2023-05-21T02:00:31.421Z,24.33
2023-05-21T02:02:37.507Z,24.32
2023-05-21T02:04:44.154Z,24.3
2023-05-21T02:06:50.914Z,24.29
2023-05-21T02:08:57.850Z,24.27
2023-05-21T02:11:03.983Z,24.28
2023-05-21T02:13:10.308Z,24.27
2023-05-21T02:15:16.145Z,24.26
2023-05-21T02:17:22.670Z,24.27
2023-05-21T02:19:28.973Z,24.25
2023-05-21T02:21:35.048Z,24.25
2023-05-21T02:23:40.995Z,24.24
2023-05-21T02:25:48.146Z,24.22
2023-05-21T02:27:54.743Z,24.2
2023-05-21T02:30:00.190Z,24.18
2023-05-21T02:32:07.311Z,24.18
2023-05-21T02:34:13.221Z,24.19
2023-05-21T02:36:19.376Z,24.16
2023-05-21T02:38:25.147Z,24.18
2023-05-21T02:40:31.821Z,24.19
2023-05-21T02:42:37.360Z,24.2
2023-05-21T02:44:43.418Z,24.21
2023-05-21T02:46:49.985Z,24.19
2023-05-21T02:48:55.733Z,24.17
2023-05-21T02:51:02.705Z,24.15
2023-05-21T02:53:08.558Z,24.15
2023-05-21T02:55:14.410Z,24.16
2023-05-21T02:57:21.232Z,24.14
2023-05-21T02:59:27.743Z,24.11
2023-05-21T03:01:33.629Z,24.14
2023-05-21T03:03:39.784Z,24.09
2023-05-21T03:05:45.912Z,24.14
2023-05-21T03:07:51.359Z,24.13
2023-05-21T03:09:57.098Z,24.13
2023-05-21T03:12:02.752Z,24.11
2023-05-21T03:14:08.891Z,24.11
2023-05-21T03:16:14.649Z,24.09
2023-05-21T03:18:20.862Z,24.13
2023-05-21T03:20:26.341Z,24.14
2023-05-21T03:22:32.498Z,24.13
2023-05-21T03:26:40.347Z,24.06
2023-05-21T03:28:46.791Z,24.07
2023-05-21T03:30:53.959Z,24.07
2023-05-21T03:32:59.636Z,24.08
2023-05-21T03:35:08.611Z,24.08
2023-05-21T03:37:14.476Z,24.08
2023-05-21T03:39:20.237Z,24.05
2023-05-21T03:41:26.077Z,24.06
2023-05-21T03:43:31.835Z,24.07
2023-05-21T03:45:37.856Z,24.07
2023-05-21T03:47:49.088Z,24.08
2023-05-21T03:49:55.801Z,24.12
2023-05-21T03:52:01.914Z,24.11
2023-05-21T03:54:07.327Z,24.1
2023-05-21T03:56:13.654Z,24.12
2023-05-21T03:58:19.324Z,24.08
2023-05-21T04:00:24.965Z,24.1
2023-05-21T04:02:30.469Z,24.1
2023-05-21T04:04:37.368Z,24.1
2023-05-21T04:06:44.250Z,24.1
2023-05-21T04:08:50.008Z,24.1
2023-05-21T04:10:55.546Z,24.09
2023-05-21T04:13:03.450Z,24.08
2023-05-21T04:15:08.994Z,24.1
2023-05-21T04:17:16.678Z,24.09
2023-05-21T04:19:23.685Z,24.08
2023-05-21T04:21:29.973Z,24.1
2023-05-21T04:23:35.365Z,24.09
2023-05-21T04:25:43.112Z,24.09
2023-05-21T04:27:48.902Z,24.08
2023-05-21T04:29:54.974Z,24.07
2023-05-21T04:32:00.815Z,24.08
2023-05-21T04:34:07.542Z,24.08
2023-05-21T04:36:13.431Z,24.09
2023-05-21T04:38:20.355Z,24.07
2023-05-21T04:40:25.964Z,24.09
2023-05-21T04:42:31.695Z,24.1
2023-05-21T04:44:37.442Z,24.1
2023-05-21T04:46:44.528Z,24.09
2023-05-21T04:48:51.305Z,24.11
2023-05-21T04:50:56.937Z,24.09
2023-05-21T04:53:02.695Z,24.06
2023-05-21T04:55:08.718Z,24.08
2023-05-21T04:57:14.491Z,24.09
2023-05-21T04:59:20.820Z,24.07
2023-05-21T05:01:27.309Z,24.06
2023-05-21T05:03:33.168Z,24.05
2023-05-21T05:05:39.697Z,24.07
2023-05-21T05:07:45.886Z,24.08
2023-05-21T05:09:52.597Z,24.08
2023-05-21T05:11:58.018Z,24.09
2023-05-21T05:14:06.923Z,24.08
2023-05-21T05:16:12.845Z,24.08
2023-05-21T05:18:18.367Z,24.08
2023-05-21T05:20:24.673Z,24.08
2023-05-21T05:22:30.217Z,24.07
2023-05-21T05:24:36.479Z,24.1
2023-05-21T05:26:42.020Z,24.1
2023-05-21T05:28:47.875Z,24.11
2023-05-21T05:30:53.222Z,24.11
2023-05-21T05:32:58.879Z,24.11
2023-05-21T05:35:05.953Z,24.11
2023-05-21T05:37:11.674Z,24.11
2023-05-21T05:39:18.419Z,24.11
2023-05-21T05:41:27.381Z,24.1
2023-05-21T05:43:33.329Z,24.08
2023-05-21T05:45:39.184Z,24.07
2023-05-21T05:47:44.973Z,24.04
2023-05-21T05:49:50.667Z,24.03
2023-05-21T05:51:57.002Z,24.04
2023-05-21T05:54:03.449Z,24.06
2023-05-21T05:56:08.785Z,24.09
2023-05-21T05:58:14.670Z,24.13
2023-05-21T06:00:20.547Z,24.18
2023-05-21T06:02:26.232Z,24.23
2023-05-21T06:04:31.749Z,24.24
2023-05-21T06:06:37.641Z,24.26
2023-05-21T06:08:43.734Z,24.29
2023-05-21T06:10:49.757Z,24.26
2023-05-21T06:12:55.343Z,24.24
2023-05-21T06:15:00.972Z,24.2
2023-05-21T06:17:06.920Z,24.18
2023-05-21T06:19:12.793Z,24.15
2023-05-21T06:21:18.834Z,24.11
2023-05-21T06:23:24.677Z,24.12
2023-05-21T06:25:30.323Z,24.1
2023-05-21T06:27:36.068Z,24.1
2023-05-21T06:29:42.635Z,24.11
2023-05-21T06:31:48.427Z,24.11
2023-05-21T06:33:54.094Z,24.12
2023-05-21T06:36:00.706Z,24.12
2023-05-21T06:38:07.374Z,24.09
2023-05-21T06:40:13.321Z,24.09
2023-05-21T06:42:19.264Z,24.09
2023-05-21T06:44:25.232Z,24.11
2023-05-21T06:46:31.711Z,24.1
2023-05-21T06:48:37.644Z,24.12
2023-05-21T06:50:43.597Z,24.16
2023-05-21T06:52:49.729Z,24.13
2023-05-21T06:54:56.419Z,24.14
2023-05-21T06:57:02.686Z,24.12
2023-05-21T06:59:08.808Z,24.11
2023-05-21T07:01:16.630Z,24.13
2023-05-21T07:03:22.619Z,24.13
2023-05-21T07:05:28.541Z,24.16
2023-05-21T07:07:34.276Z,24.18
2023-05-21T07:09:40.230Z,24.19
2023-05-21T07:11:45.880Z,24.21
2023-05-21T07:13:51.624Z,24.23
2023-05-21T07:15:58.713Z,24.25
2023-05-21T07:18:04.476Z,24.27
2023-05-21T07:20:10.514Z,24.25
2023-05-21T07:22:16.253Z,24.27
2023-05-21T07:24:23.742Z,24.27
2023-05-21T07:26:29.690Z,24.26
2023-05-21T07:28:36.051Z,24.27
2023-05-21T07:30:42.846Z,24.25
2023-05-21T07:32:48.601Z,24.22
2023-05-21T07:34:55.431Z,24.19
2023-05-21T07:37:00.995Z,24.16
2023-05-21T07:39:07.046Z,24.14
2023-05-21T07:41:12.794Z,24.16
2023-05-21T07:43:23.153Z,24.17
2023-05-21T07:45:29.119Z,24.17
2023-05-21T07:47:35.021Z,24.18
2023-05-21T07:49:40.899Z,24.2
2023-05-21T07:51:47.554Z,24.25
2023-05-21T07:53:55.092Z,24.28
2023-05-21T07:56:01.763Z,24.3
2023-05-21T07:58:07.581Z,24.32
2023-05-21T08:00:13.321Z,24.34
2023-05-21T08:02:19.015Z,24.36
2023-05-21T08:04:25.305Z,24.38
2023-05-21T08:06:31.389Z,24.35
2023-05-21T08:08:37.782Z,24.38
2023-05-21T08:10:43.599Z,24.4
2023-05-21T08:12:50.058Z,24.41
2023-05-21T08:14:56.173Z,24.41
2023-05-21T08:17:01.678Z,24.42
2023-05-21T08:19:08.174Z,24.45
2023-05-21T08:21:14.859Z,24.48
2023-05-21T08:23:20.655Z,24.51
2023-05-21T08:25:26.198Z,24.52
2023-05-21T08:27:32.251Z,24.51
2023-05-21T08:29:38.071Z,24.53
2023-05-21T08:31:44.697Z,24.53
2023-05-21T08:33:50.726Z,24.54
2023-05-21T08:35:57.150Z,24.56
2023-05-21T08:38:03.132Z,24.58
2023-05-21T08:40:09.630Z,24.6
2023-05-21T08:42:22.714Z,24.62
2023-05-21T08:44:42.070Z,24.68
2023-05-21T08:46:48.657Z,24.68
2023-05-21T08:48:54.200Z,24.69
2023-05-21T08:50:59.636Z,24.71
2023-05-21T08:53:12.645Z,24.66
2023-05-21T08:55:35.203Z,24.64
2023-05-21T08:57:41.883Z,24.62
2023-05-21T08:59:47.713Z,24.64
2023-05-21T09:01:53.526Z,24.66
2023-05-21T09:04:08.628Z,24.64
2023-05-21T09:06:26.865Z,24.6
2023-05-21T09:08:33.446Z,24.6
2023-05-21T09:10:39.283Z,24.57
2023-05-21T09:12:44.833Z,24.57
2023-05-21T09:14:50.880Z,24.59
2023-05-21T09:16:56.741Z,24.6
2023-05-21T09:19:04.560Z,24.65
2023-05-21T09:21:11.216Z,24.68
2023-05-21T09:23:17.014Z,24.68
2023-05-21T09:25:22.806Z,24.67
2023-05-21T09:27:29.107Z,24.65
2023-05-21T09:29:34.729Z,24.66
2023-05-21T09:31:40.660Z,24.67
2023-05-21T09:33:46.082Z,24.67
2023-05-21T09:35:52.055Z,24.69
2023-05-21T09:37:58.964Z,24.79
2023-05-21T09:40:05.564Z,24.81
2023-05-21T09:42:11.522Z,24.8
2023-05-21T09:44:17.285Z,24.83
2023-05-21T09:46:23.262Z,24.85
2023-05-21T09:48:30.017Z,24.88
2023-05-21T09:50:36.859Z,24.86
2023-05-21T09:52:42.855Z,24.87
2023-05-21T09:54:50.223Z,24.9
2023-05-21T09:56:56.175Z,24.96
2023-05-21T09:59:02.129Z,24.95
2023-05-21T10:01:09.197Z,24.94
2023-05-21T10:03:15.030Z,24.95
2023-05-21T10:05:22.443Z,24.92
2023-05-21T10:07:28.291Z,24.94
2023-05-21T10:09:34.212Z,25.04
2023-05-21T10:11:41.422Z,25.16
2023-05-21T10:13:47.873Z,25.24
2023-05-21T10:15:54.975Z,25.27
2023-05-21T10:18:01.267Z,25.24
2023-05-21T10:20:08.006Z,25.21
2023-05-21T10:22:14.266Z,25.16
2023-05-21T10:24:21.442Z,25.13
2023-05-21T10:26:29.010Z,25.16
2023-05-21T10:28:34.579Z,25.22
2023-05-21T10:30:41.272Z,25.35
2023-05-21T10:32:47.723Z,25.42
2023-05-21T10:34:53.965Z,25.4
2023-05-21T10:37:00.746Z,25.45
2023-05-21T10:39:07.009Z,25.4
2023-05-21T10:41:13.266Z,25.38
2023-05-21T10:43:19.316Z,25.42
2023-05-21T10:45:25.881Z,25.44
2023-05-21T10:47:31.979Z,25.43
2023-05-21T10:49:37.965Z,25.49
2023-05-21T10:51:44.781Z,25.44
2023-05-21T10:53:51.455Z,25.49
2023-05-21T10:55:57.804Z,25.52
2023-05-21T10:58:04.931Z,25.47
2023-05-21T11:00:10.834Z,25.5
2023-05-21T11:02:16.657Z,25.47
2023-05-21T11:04:22.882Z,25.43
2023-05-21T11:06:29.824Z,25.41
2023-05-21T11:08:36.277Z,25.38
2023-05-21T11:10:42.855Z,25.35
2023-05-21T11:12:49.936Z,25.36
2023-05-21T11:14:55.687Z,25.35
2023-05-21T11:17:01.897Z,25.35
2023-05-21T11:19:08.801Z,25.37
2023-05-21T11:21:17.736Z,25.38
2023-05-21T11:23:23.495Z,25.39
2023-05-21T11:25:30.217Z,25.39
2023-05-21T11:27:35.993Z,25.39
2023-05-21T11:29:43.920Z,25.41
2023-05-21T11:31:51.868Z,25.42
2023-05-21T11:33:58.573Z,25.37
2023-05-21T11:36:04.409Z,25.38
2023-05-21T11:38:10.006Z,25.4
2023-05-21T11:40:15.764Z,25.4
2023-05-21T11:42:21.257Z,25.45
2023-05-21T11:44:26.603Z,25.49
2023-05-21T11:46:31.924Z,25.54
2023-05-21T11:48:39.484Z,25.56
2023-05-21T11:50:45.084Z,25.59
2023-05-21T11:52:54.503Z,25.63
2023-05-21T11:55:00.192Z,25.63
2023-05-21T11:57:06.111Z,25.61
2023-05-21T11:59:12.543Z,25.58
2023-05-21T12:01:22.011Z,25.6
2023-05-21T12:03:27.900Z,25.61
2023-05-21T12:05:34.240Z,25.56
2023-05-21T12:07:40.457Z,25.56
2023-05-21T12:09:47.182Z,25.58
2023-05-21T12:11:53.533Z,25.6
2023-05-21T12:13:59.191Z,25.55
2023-05-21T12:16:07.810Z,25.59
2023-05-21T12:18:15.600Z,25.59
2023-05-21T12:20:21.415Z,25.61
2023-05-21T12:22:27.080Z,25.67
2023-05-21T12:24:33.011Z,25.65
2023-05-21T12:26:39.259Z,25.65
2023-05-21T12:28:45.057Z,25.68
2023-05-21T12:30:50.877Z,25.67
2023-05-21T12:32:56.841Z,25.66
2023-05-21T12:35:03.205Z,25.64
2023-05-21T12:37:09.041Z,25.67
2023-05-21T12:39:15.296Z,25.71
2023-05-21T12:41:22.306Z,25.78
2023-05-21T12:43:28.627Z,25.79
2023-05-21T12:45:35.202Z,25.82
2023-05-21T12:47:40.764Z,25.8
2023-05-21T12:49:46.526Z,25.83
2023-05-21T12:51:52.466Z,25.83
2023-05-21T12:53:57.878Z,25.82
2023-05-21T12:56:03.677Z,25.84
2023-05-21T12:58:09.789Z,25.85
2023-05-21T13:00:15.919Z,25.87
2023-05-21T13:02:21.894Z,25.9
2023-05-21T13:04:27.648Z,25.9
2023-05-21T13:06:33.781Z,25.89
2023-05-21T13:08:39.971Z,25.87
2023-05-21T13:10:45.501Z,25.85
2023-05-21T13:12:51.626Z,25.83
2023-05-21T13:14:57.913Z,25.87
2023-05-21T13:17:04.993Z,25.92
2023-05-21T13:19:11.396Z,26.08
2023-05-21T13:21:18.120Z,26.18
2023-05-21T13:23:24.903Z,26.16
2023-05-21T13:25:30.518Z,26.18
2023-05-21T13:27:36.908Z,26.13
2023-05-21T13:29:43.479Z,26.15
2023-05-21T13:31:49.331Z,26.12
2023-05-21T13:33:55.961Z,26.11
2023-05-21T13:36:01.431Z,26.06
2023-05-21T13:38:07.209Z,26.05
2023-05-21T13:40:12.924Z,26.07
2023-05-21T13:42:20.038Z,26.05
2023-05-21T13:44:25.632Z,26.03
2023-05-21T13:46:31.746Z,26.03
2023-05-21T13:48:37.691Z,26.02
2023-05-21T13:50:44.424Z,26
2023-05-21T13:52:50.044Z,26.03
2023-05-21T13:54:55.613Z,26.02
2023-05-21T13:57:01.159Z,26.02
2023-05-21T13:59:06.694Z,26.01
2023-05-21T14:01:13.304Z,25.97
2023-05-21T14:03:20.264Z,25.97
2023-05-21T14:05:25.990Z,25.96
2023-05-21T14:07:31.549Z,25.95
2023-05-21T14:09:37.478Z,25.97
2023-05-21T14:11:43.070Z,26.01
2023-05-21T14:13:48.776Z,26.06
2023-05-21T14:15:54.713Z,26.15
2023-05-21T14:18:00.950Z,26.19
2023-05-21T14:20:07.037Z,26.18
2023-05-21T14:22:12.960Z,26.18
2023-05-21T14:24:18.913Z,26.16
2023-05-21T14:26:24.897Z,26.13
2023-05-21T14:28:30.835Z,26.11
2023-05-21T14:30:37.011Z,26.08
2023-05-21T14:32:43.282Z,26.06
2023-05-21T14:34:49.420Z,26.06
2023-05-21T14:36:55.466Z,26.14
2023-05-21T14:39:01.426Z,26.21
2023-05-21T14:41:07.318Z,26.2
2023-05-21T14:43:16.099Z,26.15
2023-05-21T14:45:21.629Z,26.11
2023-05-21T14:47:27.028Z,26.11
2023-05-21T14:49:32.997Z,26.09
2023-05-21T14:51:39.176Z,26.16
2023-05-21T14:53:45.209Z,26.21
2023-05-21T14:55:51.706Z,26.27
2023-05-21T14:57:57.850Z,26.24
2023-05-21T15:00:03.887Z,26.2
2023-05-21T15:02:10.055Z,26.17
2023-05-21T15:04:15.815Z,26.15
2023-05-21T15:06:22.206Z,26.18
2023-05-21T15:08:27.805Z,26.25
2023-05-21T15:10:34.136Z,26.28
2023-05-21T15:12:40.082Z,26.31
2023-05-21T15:14:45.970Z,26.38
2023-05-21T15:16:51.983Z,26.36
2023-05-21T15:18:57.790Z,26.39
2023-05-21T15:21:03.519Z,26.43
2023-05-21T15:23:16.543Z,26.46
2023-05-21T15:25:22.900Z,26.45
2023-05-21T15:27:28.554Z,26.42
2023-05-21T15:29:34.101Z,26.35
2023-05-21T15:31:39.847Z,26.28
2023-05-21T15:33:45.395Z,26.26
2023-05-21T15:35:51.354Z,26.23
2023-05-21T15:37:57.194Z,26.26
2023-05-21T15:40:03.053Z,26.24
2023-05-21T15:42:08.473Z,26.21
2023-05-21T15:44:14.218Z,26.2
2023-05-21T15:46:19.833Z,26.2
2023-05-21T15:48:25.816Z,26.2
2023-05-21T15:50:31.256Z,26.22
2023-05-21T15:52:37.968Z,26.2
2023-05-21T15:54:43.470Z,26.19
2023-05-21T15:56:48.911Z,26.16
2023-05-21T15:58:55.165Z,26.14
2023-05-21T16:01:00.852Z,26.11
2023-05-21T16:03:06.939Z,26.11
2023-05-21T16:05:13.137Z,26.11
2023-05-21T16:07:18.874Z,26.11
2023-05-21T16:09:24.827Z,26.1
2023-05-21T16:11:30.779Z,26.1
2023-05-21T16:13:36.529Z,26.1
2023-05-21T16:15:42.126Z,26.06
2023-05-21T16:17:48.588Z,26.11
2023-05-21T16:19:55.484Z,26.12
2023-05-21T16:22:01.072Z,26.09
2023-05-21T16:24:06.898Z,26.11
2023-05-21T16:26:13.446Z,26.14
2023-05-21T16:28:18.909Z,26.13
2023-05-21T16:30:25.272Z,26.15
2023-05-21T16:32:30.734Z,26.15
2023-05-21T16:34:36.392Z,26.16
2023-05-21T16:36:42.104Z,26.14
2023-05-21T16:38:47.443Z,26.17
2023-05-21T16:40:52.785Z,26.17
2023-05-21T16:42:59.477Z,26.2
2023-05-21T16:45:06.627Z,26.19
2023-05-21T16:47:12.493Z,26.2
2023-05-21T16:49:17.948Z,26.22
2023-05-21T16:51:23.772Z,26.2
2023-05-21T16:53:29.136Z,26.24
2023-05-21T16:55:34.680Z,26.24
2023-05-21T16:57:41.140Z,26.27
2023-05-21T16:59:46.466Z,26.31
2023-05-21T17:01:51.660Z,26.31
2023-05-21T17:03:57.401Z,26.32
2023-05-21T17:06:03.838Z,26.3
2023-05-21T17:08:09.089Z,26.32
2023-05-21T17:10:14.383Z,26.31
2023-05-21T17:12:19.817Z,26.3
2023-05-21T17:14:33.623Z,26.28
2023-05-21T17:16:42.604Z,26.31
2023-05-21T17:18:48.024Z,26.3
2023-05-21T17:20:53.296Z,26.26
2023-05-21T17:22:58.709Z,26.29
2023-05-21T17:25:04.242Z,26.32
2023-05-21T17:27:09.468Z,26.28
2023-05-21T17:29:14.799Z,26.3
2023-05-21T17:31:20.272Z,26.23
2023-05-21T17:33:25.785Z,26.26
2023-05-21T17:35:31.237Z,26.27
2023-05-21T17:37:36.823Z,26.24
2023-05-21T17:39:42.102Z,26.21
2023-05-21T17:41:47.538Z,26.19
2023-05-21T17:43:52.777Z,26.17
2023-05-21T17:45:58.164Z,26.16
2023-05-21T17:48:03.341Z,26.14
2023-05-21T17:50:08.618Z,26.17
2023-05-21T17:52:13.777Z,26.17
2023-05-21T17:54:18.945Z,26.19
2023-05-21T17:56:24.067Z,26.21
2023-05-21T17:58:29.229Z,26.21
2023-05-21T18:00:34.418Z,26.23
2023-05-21T18:02:39.935Z,26.2
2023-05-21T18:04:45.649Z,26.2
2023-05-21T18:06:51.297Z,26.19
2023-05-21T18:08:56.623Z,26.14
2023-05-21T18:11:02.179Z,26.11
2023-05-21T18:13:07.642Z,26.09
2023-05-21T18:15:12.768Z,26.11
2023-05-21T18:17:18.079Z,26.14
2023-05-21T18:19:23.453Z,26.14
2023-05-21T18:21:29.478Z,26.09
2023-05-21T18:23:35.012Z,26.04
2023-05-21T18:25:40.661Z,26.01
2023-05-21T18:27:45.873Z,25.99
2023-05-21T18:29:51.212Z,25.96
2023-05-21T18:31:56.543Z,25.98
2023-05-21T18:34:02.525Z,26.01
2023-05-21T18:36:08.372Z,25.96
2023-05-21T18:38:13.942Z,25.92
2023-05-21T18:40:19.234Z,25.85
2023-05-21T18:42:24.488Z,25.69
2023-05-21T18:44:29.931Z,25.59
2023-05-21T18:46:35.337Z,25.5
2023-05-21T18:48:40.863Z,25.47
2023-05-21T18:50:46.250Z,25.42
2023-05-21T18:52:51.697Z,25.37
2023-05-21T18:54:58.167Z,25.33
2023-05-21T18:57:03.501Z,25.29
2023-05-21T18:59:08.837Z,25.25
2023-05-21T19:01:14.305Z,25.22
2023-05-21T19:03:20.040Z,25.23
2023-05-21T19:05:25.365Z,25.25
2023-05-21T19:07:30.796Z,25.26
2023-05-21T19:09:36.249Z,25.29
2023-05-21T19:11:41.581Z,25.3
2023-05-21T19:13:47.048Z,25.31
2023-05-21T19:15:52.398Z,25.3
2023-05-21T19:17:57.817Z,25.34
2023-05-21T19:20:03.238Z,25.37
2023-05-21T19:22:08.677Z,25.4
2023-05-21T19:24:14.117Z,25.41
2023-05-21T19:26:19.554Z,25.41
2023-05-21T19:28:24.995Z,25.36
2023-05-21T19:30:30.231Z,25.36
2023-05-21T19:32:35.472Z,25.34
2023-05-21T19:34:40.702Z,25.35
2023-05-21T19:36:53.273Z,25.31
2023-05-21T19:38:58.966Z,25.3
2023-05-21T19:41:04.219Z,25.33
2023-05-21T19:43:09.642Z,25.33
2023-05-21T19:45:14.968Z,25.34
2023-05-21T19:47:20.205Z,25.36
2023-05-21T19:49:25.446Z,25.36
2023-05-21T19:51:30.882Z,25.37
2023-05-21T19:53:36.198Z,25.36
2023-05-21T19:55:41.692Z,25.32
2023-05-21T19:57:46.958Z,25.28
2023-05-21T19:59:52.436Z,25.25
2023-05-21T20:01:57.880Z,25.19
2023-05-21T20:04:03.253Z,25.17
2023-05-21T20:06:08.858Z,25.13
2023-05-21T20:08:14.206Z,25.12
2023-05-21T20:10:19.559Z,25.08
2023-05-21T20:12:24.990Z,25.04
2023-05-21T20:14:30.522Z,25.06
2023-05-21T20:16:35.880Z,25.06
2023-05-21T20:18:41.405Z,25.06
2023-05-21T20:20:46.938Z,25.07
2023-05-21T20:22:52.286Z,25.06
2023-05-21T20:24:57.615Z,25.07
2023-05-21T20:27:03.162Z,25.05
2023-05-21T20:29:08.393Z,25.01
2023-05-21T20:31:13.640Z,25
2023-05-21T20:33:19.286Z,24.99
2023-05-21T20:35:24.816Z,24.95
2023-05-21T20:37:30.361Z,24.95
2023-05-21T20:39:35.727Z,24.99
2023-05-21T20:41:41.030Z,25.05
2023-05-21T20:43:46.310Z,25.12
2023-05-21T20:45:51.644Z,25.16
2023-05-21T20:47:57.102Z,25.15
2023-05-21T20:50:02.606Z,25.14
2023-05-21T20:52:08.029Z,25.13
2023-05-21T20:54:13.400Z,25.13
2023-05-21T20:56:24.058Z,25.12
2023-05-21T20:58:46.467Z,25.13
2023-05-21T21:00:51.850Z,25.12
2023-05-21T21:02:57.440Z,25.12
2023-05-21T21:05:03.078Z,25.12
2023-05-21T21:07:08.636Z,25.12
2023-05-21T21:09:14.076Z,25.14
2023-05-21T21:11:19.421Z,25.16
2023-05-21T21:13:24.890Z,25.13
2023-05-21T21:15:30.196Z,25.13
2023-05-21T21:17:35.440Z,25.17
2023-05-21T21:19:40.970Z,25.15
2023-05-21T21:21:46.409Z,25.15
2023-05-21T21:23:51.864Z,25.16
2023-05-21T21:25:57.307Z,25.19
2023-05-21T21:28:02.944Z,25.16
2023-05-21T21:30:08.288Z,25.14
2023-05-21T21:32:13.717Z,25.14
2023-05-21T21:34:18.952Z,25.12
2023-05-21T21:36:24.291Z,25.12
2023-05-21T21:38:29.531Z,25.12
2023-05-21T21:40:35.076Z,25.1
2023-05-21T21:42:41.059Z,25.06
2023-05-21T21:44:46.466Z,25.07
2023-05-21T21:46:51.698Z,25.06
2023-05-21T21:48:57.044Z,25.05
2023-05-21T21:51:02.475Z,25.04
2023-05-21T21:53:07.925Z,25.06
2023-05-21T21:55:13.259Z,25.06
2023-05-21T21:57:18.451Z,25.04
2023-05-21T21:59:23.848Z,25.04
2023-05-21T22:01:29.287Z,25.02
2023-05-21T22:03:34.706Z,25.04
2023-05-21T22:05:39.952Z,25.06
2023-05-21T22:07:45.292Z,25.04
2023-05-21T22:09:50.932Z,25.01
2023-05-21T22:11:56.215Z,25.02
2023-05-21T22:14:01.504Z,25.03
2023-05-21T22:16:06.850Z,25.04
2023-05-21T22:18:12.650Z,25.04
2023-05-21T22:20:25.198Z,25.05
2023-05-21T22:22:30.643Z,25.05
2023-05-21T22:24:35.873Z,25.07
2023-05-21T22:26:41.213Z,25.05
2023-05-21T22:28:46.656Z,25.04
2023-05-21T22:30:51.996Z,25.04
2023-05-21T22:32:57.398Z,25.04
2023-05-21T22:35:02.976Z,25.02
2023-05-21T22:37:08.322Z,25.01
2023-05-21T22:39:13.686Z,25
2023-05-21T22:41:19.086Z,25
2023-05-21T22:43:24.386Z,25.01
2023-05-21T22:45:29.666Z,25.01
2023-05-21T22:47:34.913Z,25
2023-05-21T22:49:40.744Z,24.99
2023-05-21T22:51:46.083Z,25.01
2023-05-21T22:53:51.325Z,25.02
2023-05-21T22:55:56.572Z,24.99
2023-05-21T22:58:02.001Z,25
2023-05-21T23:00:07.443Z,25
2023-05-21T23:02:12.798Z,25.02
2023-05-21T23:04:19.541Z,25.02
2023-05-21T23:06:46.905Z,25.03
2023-05-21T23:08:52.138Z,25.03
2023-05-21T23:10:57.379Z,25.03
2023-05-21T23:13:02.604Z,25.01
2023-05-21T23:15:07.852Z,25.03
2023-05-21T23:17:13.284Z,25.02
2023-05-21T23:19:18.740Z,25.02
2023-05-21T23:21:24.306Z,25.01
2023-05-21T23:23:29.614Z,24.98
2023-05-21T23:25:34.953Z,24.99
2023-05-21T23:27:40.283Z,24.99
2023-05-21T23:29:45.725Z,24.97
2023-05-21T23:31:50.966Z,24.97
2023-05-21T23:33:56.341Z,24.99
2023-05-21T23:36:01.640Z,25.01
2023-05-21T23:38:06.867Z,25.03
2023-05-21T23:40:12.218Z,25.03
2023-05-21T23:42:17.462Z,25.01
2023-05-21T23:44:22.893Z,24.99
2023-05-21T23:46:28.352Z,24.96
2023-05-21T23:48:33.668Z,24.96
2023-05-21T23:50:39.069Z,24.95
2023-05-21T23:52:44.956Z,24.95
2023-05-21T23:54:50.502Z,24.95
2023-05-21T23:56:55.848Z,24.96
2023-05-21T23:59:01.268Z,24.95
